sim
Sign-in with your pilot id or email,
or register
Callsign
Passwort

Schedule Details

Flight Number: RYR1146 (3)
Departure: Berlin Schonefeld Airport (EDDB) at 06:10
Arrival: Thessaloniki International Airport (LGTS) at 08:40
Route: Ryanair Passenger Schedule. Enter filed route here before submitting Pirep.

Weather Information
Getting current METAR information for EDDB 252220Z 08010KT CAVOK 18/04 Q1010 NOSIG
Getting current METAR information for LGTS 252220Z VRB02KT CAVOK 15/12 Q1020 NOSIG

Schedule Frequency

Route Map